createdAt,value
2024-03-05T00:00:39.857Z,3.27
2024-03-05T00:03:06.781Z,3.26
2024-03-05T00:05:33.511Z,3.23
2024-03-05T00:08:00.580Z,3.20
2024-03-05T00:10:27.464Z,3.19
2024-03-05T00:12:54.480Z,3.19
2024-03-05T00:15:21.221Z,3.18
2024-03-05T00:17:47.897Z,3.18
2024-03-05T00:20:20.007Z,3.19
2024-03-05T00:22:51.860Z,3.16
2024-03-05T00:25:19.330Z,3.16
2024-03-05T00:27:46.712Z,3.18
2024-03-05T00:30:15.355Z,3.21
2024-03-05T00:32:42.653Z,3.22
2024-03-05T00:35:13.120Z,3.24
2024-03-05T00:37:40.040Z,3.25
2024-03-05T00:40:10.445Z,3.27
2024-03-05T00:42:37.886Z,3.32
2024-03-05T00:45:09.199Z,3.33
2024-03-05T00:47:37.398Z,3.33
2024-03-05T00:50:05.944Z,3.34
2024-03-05T00:52:33.409Z,3.35
2024-03-05T00:55:01.501Z,3.38
2024-03-05T00:57:28.889Z,3.42
2024-03-05T00:59:55.838Z,3.43
2024-03-05T01:02:23.970Z,3.45
2024-03-05T01:04:51.437Z,3.46
2024-03-05T01:07:18.745Z,3.49
2024-03-05T01:09:46.053Z,3.53
2024-03-05T01:12:12.817Z,3.56
2024-03-05T01:14:39.945Z,3.56
2024-03-05T01:17:07.018Z,3.56
2024-03-05T01:19:33.797Z,3.57
2024-03-05T01:22:01.056Z,3.55
2024-03-05T01:24:28.712Z,3.55
2024-03-05T01:26:55.409Z,3.55
2024-03-05T01:29:23.426Z,3.53
2024-03-05T01:31:57.803Z,3.47
2024-03-05T01:34:25.608Z,3.45
2024-03-05T01:36:59.301Z,3.44
2024-03-05T01:39:28.845Z,3.46
2024-03-05T01:41:56.556Z,3.48
2024-03-05T01:44:23.853Z,3.51
2024-03-05T01:46:57.540Z,3.53
2024-03-05T01:49:26.508Z,3.56
2024-03-05T01:51:56.039Z,3.56
2024-03-05T01:54:24.834Z,3.58
2024-03-05T01:56:56.109Z,3.63
2024-03-05T01:59:23.860Z,3.67
2024-03-05T02:01:52.003Z,3.71
2024-03-05T02:04:18.991Z,3.75
2024-03-05T02:06:47.510Z,3.76
2024-03-05T02:09:14.928Z,3.77
2024-03-05T02:11:52.854Z,3.75
2024-03-05T02:14:27.891Z,3.73
2024-03-05T02:16:59.325Z,3.72
2024-03-05T02:19:27.330Z,3.68
2024-03-05T02:22:04.848Z,3.66
2024-03-05T02:24:31.988Z,3.62
2024-03-05T02:27:03.285Z,3.59
2024-03-05T02:29:32.583Z,3.55
2024-03-05T02:31:59.645Z,3.51
2024-03-05T02:34:27.312Z,3.52
2024-03-05T02:36:54.192Z,3.54
2024-03-05T02:39:21.434Z,3.56
2024-03-05T02:41:51.033Z,3.58
2024-03-05T02:44:17.658Z,3.59
2024-03-05T02:46:44.307Z,3.61
2024-03-05T02:49:12.854Z,3.60
2024-03-05T02:51:39.513Z,3.61
2024-03-05T02:54:07.617Z,3.61
2024-03-05T02:56:34.980Z,3.61
2024-03-05T02:59:01.826Z,3.59
2024-03-05T03:01:28.828Z,3.57
2024-03-05T03:03:55.886Z,3.60
2024-03-05T03:06:23.494Z,3.61
2024-03-05T03:08:50.115Z,3.60
2024-03-05T03:11:20.231Z,3.60
2024-03-05T03:13:49.905Z,3.60
2024-03-05T03:17:12.603Z,3.61
2024-03-05T03:19:39.357Z,3.61
2024-03-05T03:22:06.248Z,3.61
2024-03-05T03:24:32.947Z,3.62
2024-03-05T03:26:59.886Z,3.64
2024-03-05T03:29:27.804Z,3.64
2024-03-05T03:31:56.537Z,3.65
2024-03-05T03:34:23.732Z,3.66
2024-03-05T03:36:50.566Z,3.66
2024-03-05T03:39:25.292Z,3.68
2024-03-05T03:41:54.763Z,3.67
2024-03-05T03:44:23.517Z,3.65
2024-03-05T03:46:51.706Z,3.64
2024-03-05T03:49:27.111Z,3.66
2024-03-05T03:51:55.298Z,3.68
2024-03-05T03:54:23.024Z,3.70
2024-03-05T03:56:50.308Z,3.71
2024-03-05T03:59:17.617Z,3.72
2024-03-05T04:01:53.210Z,3.73
2024-03-05T04:04:20.052Z,3.75
2024-03-05T04:06:47.738Z,3.78
2024-03-05T04:09:15.484Z,3.80
2024-03-05T04:11:43.684Z,3.80
2024-03-05T04:14:11.062Z,3.82
2024-03-05T04:16:41.961Z,3.81
2024-03-05T04:19:09.849Z,3.80
2024-03-05T04:21:43.624Z,3.81
2024-03-05T04:24:14.159Z,3.82
2024-03-05T04:26:42.745Z,3.84
2024-03-05T04:29:17.743Z,3.83
2024-03-05T04:31:50.694Z,3.82
2024-03-05T04:34:21.838Z,3.79
2024-03-05T04:36:55.531Z,3.76
2024-03-05T04:39:23.929Z,3.74
2024-03-05T04:41:50.785Z,3.74
2024-03-05T04:44:17.635Z,3.75
2024-03-05T04:46:44.273Z,3.73
2024-03-05T04:49:10.921Z,3.71
2024-03-05T04:51:38.303Z,3.69
2024-03-05T04:54:05.385Z,3.69
2024-03-05T04:56:32.500Z,3.69
2024-03-05T04:58:59.323Z,3.70
2024-03-05T05:01:26.312Z,3.71
2024-03-05T05:03:53.169Z,3.74
2024-03-05T05:06:19.840Z,3.76
2024-03-05T05:08:47.065Z,3.79
2024-03-05T05:11:13.900Z,3.80
2024-03-05T05:13:44.401Z,3.83
2024-03-05T05:16:12.799Z,3.85
2024-03-05T05:18:39.963Z,3.87
2024-03-05T05:21:08.831Z,3.87
2024-03-05T05:23:36.270Z,3.87
2024-03-05T05:26:03.424Z,3.90
2024-03-05T05:28:30.522Z,3.92
2024-03-05T05:30:57.278Z,3.94
2024-03-05T05:33:23.983Z,3.96
2024-03-05T05:35:51.446Z,3.97
2024-03-05T05:38:18.241Z,4.01
2024-03-05T05:40:44.926Z,4.03
2024-03-05T05:43:12.665Z,4.04
2024-03-05T05:45:39.438Z,4.06
2024-03-05T05:48:06.914Z,4.10
2024-03-05T05:50:33.661Z,4.15
2024-03-05T05:53:00.754Z,4.19
2024-03-05T05:55:28.390Z,4.23
2024-03-05T05:57:56.720Z,4.28
2024-03-05T06:00:40.242Z,4.32
2024-03-05T06:03:10.590Z,4.33
2024-03-05T06:05:39.311Z,4.36
2024-03-05T06:08:13.438Z,4.42
2024-03-05T06:10:43.103Z,4.49
2024-03-05T06:13:10.543Z,4.56
2024-03-05T06:15:39.878Z,4.63
2024-03-05T06:18:07.637Z,4.67
2024-03-05T06:20:34.537Z,4.71
2024-03-05T06:23:02.273Z,4.75
2024-03-05T06:25:29.428Z,4.77
2024-03-05T06:27:56.466Z,4.77
2024-03-05T06:30:24.223Z,4.77
2024-03-05T06:32:52.973Z,4.77
2024-03-05T06:35:23.796Z,4.79
2024-03-05T06:37:51.916Z,4.80
2024-03-05T06:40:25.061Z,4.79
2024-03-05T06:42:53.819Z,4.78
2024-03-05T06:45:29.068Z,4.77
2024-03-05T06:48:10.483Z,4.77
2024-03-05T06:50:45.029Z,4.77
2024-03-05T06:53:31.970Z,4.79
2024-03-05T06:56:18.026Z,4.82
2024-03-05T06:58:47.827Z,4.83
2024-03-05T07:01:16.145Z,4.82
2024-03-05T07:03:45.861Z,4.80
2024-03-05T07:06:14.555Z,4.79
2024-03-05T07:08:44.076Z,4.79
2024-03-05T07:11:12.578Z,4.81
2024-03-05T07:13:44.613Z,4.85
2024-03-05T07:16:17.790Z,4.86
2024-03-05T07:18:51.649Z,4.86
2024-03-05T07:21:21.590Z,4.86
2024-03-05T07:23:52.990Z,4.86
2024-03-05T07:39:32.786Z,5.27
2024-03-05T07:41:59.497Z,5.43
2024-03-05T07:44:26.152Z,5.44
2024-03-05T07:46:52.889Z,5.45
2024-03-05T07:49:19.906Z,5.44
2024-03-05T07:51:46.698Z,5.42
2024-03-05T07:54:14.335Z,5.42
2024-03-05T07:56:41.868Z,5.46
2024-03-05T07:59:08.724Z,5.49
2024-03-05T08:01:35.444Z,5.52
2024-03-05T08:04:02.449Z,5.52
2024-03-05T08:06:30.172Z,5.51
2024-03-05T08:08:57.085Z,5.51
2024-03-05T08:11:24.748Z,5.52
2024-03-05T08:13:52.358Z,5.53
2024-03-05T08:16:19.355Z,5.54
2024-03-05T08:18:47.301Z,5.60
2024-03-05T08:21:14.897Z,5.64
2024-03-05T08:23:41.854Z,5.63
2024-03-05T08:26:08.842Z,5.65
2024-03-05T08:28:35.952Z,5.72
2024-03-05T08:31:02.840Z,5.79
2024-03-05T08:33:29.583Z,5.82
2024-03-05T08:35:56.305Z,5.83
2024-03-05T08:38:22.957Z,5.87
2024-03-05T08:40:50.561Z,5.94
2024-03-05T08:43:17.416Z,5.99
2024-03-05T08:45:44.326Z,6.00
2024-03-05T08:48:11.347Z,5.99
2024-03-05T08:50:38.139Z,5.93
2024-03-05T08:53:06.086Z,5.88
2024-03-05T08:55:33.103Z,5.85
2024-03-05T08:58:01.861Z,5.81
2024-03-05T09:00:38.100Z,5.79
2024-03-05T09:03:10.812Z,5.72
2024-03-05T09:05:37.946Z,5.67
2024-03-05T09:08:06.634Z,5.61
2024-03-05T09:10:34.938Z,5.55
2024-03-05T09:13:02.002Z,5.55
2024-03-05T09:15:28.757Z,5.51
2024-03-05T09:17:55.667Z,5.47
2024-03-05T09:20:22.523Z,5.44
2024-03-05T09:22:49.417Z,5.43
2024-03-05T09:25:17.381Z,5.43
2024-03-05T09:27:46.488Z,5.45
2024-03-05T09:30:16.970Z,5.47
2024-03-05T09:32:45.627Z,5.45
2024-03-05T09:35:14.624Z,5.48
2024-03-05T09:37:48.477Z,5.50
2024-03-05T09:40:19.433Z,5.47
2024-03-05T09:42:47.725Z,5.46
2024-03-05T09:45:17.016Z,5.46
2024-03-05T09:47:45.008Z,5.46
2024-03-05T09:50:17.436Z,5.48
2024-03-05T09:52:48.816Z,5.55
2024-03-05T09:55:18.513Z,5.64
2024-03-05T09:57:49.629Z,5.76
2024-03-05T10:00:19.403Z,5.81
2024-03-05T10:02:49.239Z,5.86
2024-03-05T10:05:17.779Z,5.86
2024-03-05T10:07:47.470Z,5.88
2024-03-05T10:10:18.416Z,5.87
2024-03-05T10:12:45.267Z,5.88
2024-03-05T10:15:22.386Z,5.87
2024-03-05T10:17:52.288Z,5.81
2024-03-05T10:20:45.567Z,5.77
2024-03-05T10:23:12.632Z,5.74
2024-03-05T10:25:41.466Z,5.75
2024-03-05T10:28:10.188Z,5.78
2024-03-05T10:30:38.950Z,5.78
2024-03-05T10:33:11.681Z,5.74
2024-03-05T10:35:39.957Z,5.71
2024-03-05T10:38:11.208Z,5.71
2024-03-05T10:40:39.480Z,5.73
2024-03-05T10:43:10.746Z,5.79
2024-03-05T10:45:41.804Z,5.83
2024-03-05T10:48:12.162Z,5.89
2024-03-05T10:50:41.825Z,5.97
2024-03-05T10:53:09.788Z,6.01
2024-03-05T10:55:38.915Z,6.08
2024-03-05T10:58:13.702Z,6.15
2024-03-05T11:00:43.197Z,6.21
2024-03-05T11:03:11.840Z,6.24
2024-03-05T11:05:50.733Z,6.30
2024-03-05T11:08:25.496Z,6.38
2024-03-05T11:11:23.645Z,6.47
2024-03-05T11:13:52.859Z,6.49
2024-03-05T11:16:21.643Z,6.41
2024-03-05T11:18:48.592Z,6.34
2024-03-05T11:21:16.791Z,6.36
2024-03-05T11:23:52.417Z,6.46
2024-03-05T11:26:23.386Z,6.53
2024-03-05T11:28:53.194Z,6.53
2024-03-05T11:31:22.229Z,6.50
2024-03-05T11:34:10.561Z,6.46
2024-03-05T11:36:37.962Z,6.48
2024-03-05T11:39:19.238Z,6.38
2024-03-05T11:41:47.588Z,6.35
2024-03-05T11:44:36.537Z,6.46
2024-03-05T11:47:04.495Z,6.56
2024-03-05T11:49:32.577Z,6.64
2024-03-05T11:51:59.941Z,6.72
2024-03-05T11:54:26.623Z,6.80
2024-03-05T11:56:58.355Z,6.91
2024-03-05T11:59:35.737Z,7.00
2024-03-05T12:02:03.107Z,7.05
2024-03-05T12:04:30.709Z,7.11
2024-03-05T12:07:08.248Z,7.16
2024-03-05T12:09:40.578Z,7.19
2024-03-05T12:12:13.569Z,7.18
2024-03-05T12:14:53.154Z,7.19
2024-03-05T12:17:21.223Z,7.18
2024-03-05T12:20:08.974Z,7.17
2024-03-05T12:22:41.607Z,7.15
2024-03-05T12:25:09.673Z,7.12
2024-03-05T12:27:38.701Z,7.11
2024-03-05T12:30:07.579Z,7.12
2024-03-05T12:32:34.658Z,7.04
2024-03-05T12:35:01.612Z,7.07
2024-03-05T12:37:30.894Z,7.14
2024-03-05T12:40:01.336Z,7.23
2024-03-05T12:42:29.872Z,7.28
2024-03-05T12:45:18.585Z,7.34
2024-03-05T12:48:04.532Z,7.44
2024-03-05T12:50:31.726Z,7.53
2024-03-05T12:53:06.168Z,7.57
2024-03-05T12:55:36.201Z,7.57
2024-03-05T12:58:08.311Z,7.58
2024-03-05T13:00:35.799Z,7.55
2024-03-05T13:03:06.887Z,7.53
2024-03-05T13:05:34.613Z,7.51
2024-03-05T13:08:01.541Z,7.50
2024-03-05T13:10:44.918Z,7.50
2024-03-05T13:13:11.897Z,7.49
2024-03-05T13:15:39.065Z,7.47
2024-03-05T13:18:06.981Z,7.46
2024-03-05T13:20:34.427Z,7.45
2024-03-05T13:23:01.216Z,7.47
2024-03-05T13:25:30.034Z,7.48
2024-03-05T13:27:56.966Z,7.46
2024-03-05T13:30:24.196Z,7.48
2024-03-05T13:32:53.667Z,7.48
2024-03-05T13:35:20.537Z,7.48
2024-03-05T13:37:48.918Z,7.50
2024-03-05T13:40:20.403Z,7.52
2024-03-05T13:42:49.536Z,7.55
2024-03-05T13:45:19.995Z,7.52
2024-03-05T13:47:47.363Z,7.44
2024-03-05T13:50:17.413Z,7.44
2024-03-05T13:52:46.297Z,7.48
2024-03-05T13:55:15.094Z,7.51
2024-03-05T13:57:42.736Z,7.53
2024-03-05T14:00:15.246Z,7.55
2024-03-05T14:02:42.040Z,7.55
2024-03-05T14:05:12.301Z,7.55
2024-03-05T14:07:39.612Z,7.53
2024-03-05T14:10:06.716Z,7.53
2024-03-05T14:12:36.399Z,7.54
2024-03-05T14:15:09.826Z,7.50
2024-03-05T14:17:38.165Z,7.46
2024-03-05T14:20:08.772Z,7.44
2024-03-05T14:22:39.838Z,7.42
2024-03-05T14:25:08.171Z,7.42
2024-03-05T14:27:34.869Z,7.40
2024-03-05T14:30:01.631Z,7.41
2024-03-05T14:32:28.593Z,7.44
2024-03-05T14:34:58.698Z,7.46
2024-03-05T14:37:25.724Z,7.47
2024-03-05T14:39:55.314Z,7.48
2024-03-05T14:42:22.000Z,7.47
2024-03-05T14:44:48.755Z,7.44
2024-03-05T14:47:15.414Z,7.42
2024-03-05T14:49:43.523Z,7.41
2024-03-05T14:52:10.647Z,7.44
2024-03-05T14:54:37.349Z,7.44
2024-03-05T14:57:04.363Z,7.44
2024-03-05T14:59:31.006Z,7.43
2024-03-05T15:01:57.900Z,7.42
2024-03-05T15:04:27.982Z,7.37
2024-03-05T15:06:57.525Z,7.35
2024-03-05T15:09:24.186Z,7.34
2024-03-05T15:11:51.050Z,7.30
2024-03-05T15:14:17.808Z,7.29
2024-03-05T15:16:44.498Z,7.29
2024-03-05T15:19:11.204Z,7.25
2024-03-05T15:21:39.051Z,7.21
2024-03-05T15:24:06.105Z,7.19
2024-03-05T15:26:33.744Z,7.18
2024-03-05T15:29:00.526Z,7.17
2024-03-05T15:31:27.438Z,7.18
2024-03-05T15:33:54.758Z,7.20
2024-03-05T15:36:22.075Z,7.21
2024-03-05T15:38:48.796Z,7.21
2024-03-05T15:41:16.506Z,7.21
2024-03-05T15:43:43.578Z,7.24
2024-03-05T15:46:10.247Z,7.25
2024-03-05T15:48:36.938Z,7.28
2024-03-05T15:51:04.277Z,7.28
2024-03-05T15:53:31.359Z,7.30
2024-03-05T15:56:13.498Z,7.33
2024-03-05T15:58:43.557Z,7.35
2024-03-05T16:01:11.731Z,7.37
2024-03-05T16:03:57.486Z,7.39
2024-03-05T16:06:31.163Z,7.40
2024-03-05T16:08:58.945Z,7.43
2024-03-05T16:11:26.672Z,7.45
2024-03-05T16:13:53.605Z,7.48
2024-03-05T16:16:24.737Z,7.50
2024-03-05T16:18:51.990Z,7.53
2024-03-05T16:21:18.740Z,7.54
2024-03-05T16:23:47.071Z,7.55
2024-03-05T16:26:13.712Z,7.56
2024-03-05T16:28:41.420Z,7.56
2024-03-05T16:31:12.402Z,7.56
2024-03-05T16:33:42.243Z,7.53
2024-03-05T16:36:20.896Z,7.52
2024-03-05T16:38:47.533Z,7.51
2024-03-05T16:41:14.276Z,7.49
2024-03-05T16:43:41.174Z,7.48
2024-03-05T16:46:09.356Z,7.49
2024-03-05T16:48:36.044Z,7.50
2024-03-05T16:51:03.395Z,7.49
2024-03-05T16:53:30.624Z,7.48
2024-03-05T16:55:57.345Z,7.46
2024-03-05T16:58:24.948Z,7.45
2024-03-05T17:00:57.996Z,7.45
2024-03-05T17:03:29.912Z,7.43
2024-03-05T17:05:58.394Z,7.44
2024-03-05T17:08:26.593Z,7.45
2024-03-05T17:10:55.104Z,7.47
2024-03-05T17:13:27.452Z,7.47
2024-03-05T17:15:57.464Z,7.46
2024-03-05T17:18:24.988Z,7.46
2024-03-05T17:20:54.665Z,7.45
2024-03-05T17:23:25.835Z,7.42
2024-03-05T17:25:55.898Z,7.40
2024-03-05T17:28:23.028Z,7.37
2024-03-05T17:30:50.201Z,7.36
2024-03-05T17:33:17.174Z,7.34
2024-03-05T17:35:44.555Z,7.31
2024-03-05T17:38:13.913Z,7.29
2024-03-05T17:40:41.508Z,7.28
2024-03-05T17:43:08.688Z,7.26
2024-03-05T17:45:35.666Z,7.25
2024-03-05T17:48:07.074Z,7.26
2024-03-05T17:50:36.169Z,7.27
2024-03-05T17:53:07.209Z,7.28
2024-03-05T17:55:36.266Z,7.29
2024-03-05T17:58:05.587Z,7.31
2024-03-05T18:00:42.981Z,7.31
2024-03-05T18:03:12.256Z,7.30
2024-03-05T18:05:40.148Z,7.29
2024-03-05T18:08:07.513Z,7.27
2024-03-05T18:10:36.676Z,7.25
2024-03-05T18:13:05.989Z,7.25
2024-03-05T18:15:33.525Z,7.27
2024-03-05T18:18:01.101Z,7.28
2024-03-05T18:20:30.197Z,7.28
2024-03-05T18:23:00.916Z,7.25
2024-03-05T18:25:35.662Z,7.22
2024-03-05T18:28:05.269Z,7.19
2024-03-05T18:30:43.420Z,7.16
2024-03-05T18:33:12.800Z,7.15
2024-03-05T18:35:41.674Z,7.16
2024-03-05T18:40:41.203Z,7.17
2024-03-05T18:43:10.944Z,7.16
2024-03-05T18:45:38.427Z,7.14
2024-03-05T18:48:09.693Z,7.10
2024-03-05T18:50:37.357Z,7.07
2024-03-05T18:53:07.294Z,7.05
2024-03-05T18:55:37.252Z,7.05
2024-03-05T18:58:08.030Z,7.04
2024-03-05T19:00:37.540Z,7.03
2024-03-05T19:03:05.999Z,7.05
2024-03-05T19:05:34.470Z,7.07
2024-03-05T19:08:01.710Z,7.06
2024-03-05T19:10:28.629Z,7.05
2024-03-05T19:12:55.445Z,7.05
2024-03-05T19:15:23.751Z,7.06
2024-03-05T19:17:50.955Z,7.07
2024-03-05T19:20:18.125Z,7.07
2024-03-05T19:22:45.142Z,7.07
2024-03-05T19:25:13.046Z,7.07
2024-03-05T19:27:42.448Z,7.05
2024-03-05T19:30:17.340Z,7.02
2024-03-05T19:32:45.253Z,6.99
2024-03-05T19:35:15.328Z,6.97
2024-03-05T19:37:44.328Z,6.96
2024-03-05T19:40:17.941Z,6.97
2024-03-05T19:42:46.907Z,6.97
2024-03-05T19:45:14.979Z,6.96
2024-03-05T19:47:42.643Z,6.96
2024-03-05T19:50:14.739Z,6.96
2024-03-05T19:52:41.911Z,6.95
2024-03-05T19:55:09.576Z,6.93
2024-03-05T19:57:36.611Z,6.92
2024-03-05T20:00:12.942Z,6.90
2024-03-05T20:02:40.293Z,6.86
2024-03-05T20:05:07.582Z,6.81
2024-03-05T20:07:34.590Z,6.80
2024-03-05T20:10:02.671Z,6.79
2024-03-05T20:12:29.635Z,6.79
2024-03-05T20:14:56.442Z,6.79
2024-03-05T20:17:25.484Z,6.79
2024-03-05T20:19:54.122Z,6.80
2024-03-05T20:22:20.896Z,6.81
2024-03-05T20:24:48.600Z,6.82
2024-03-05T20:27:17.209Z,6.87
2024-03-05T20:29:44.005Z,6.90
2024-03-05T20:32:10.888Z,6.91
2024-03-05T20:34:45.796Z,6.90
2024-03-05T20:37:12.495Z,6.90
2024-03-05T20:39:39.205Z,6.88
2024-03-05T20:42:09.242Z,6.86
2024-03-05T20:44:35.946Z,6.84
2024-03-05T20:47:03.006Z,6.84
2024-03-05T20:49:29.840Z,6.86
2024-03-05T20:51:57.955Z,6.88
2024-03-05T20:54:25.440Z,6.89
2024-03-05T20:56:52.268Z,6.88
2024-03-05T20:59:19.946Z,6.87
2024-03-05T21:01:47.159Z,6.88
2024-03-05T21:04:13.958Z,6.90
2024-03-05T21:06:40.710Z,6.94
2024-03-05T21:09:08.822Z,6.97
2024-03-05T21:11:35.803Z,7.00
2024-03-05T21:14:04.156Z,7.04
2024-03-05T21:16:31.107Z,7.07
2024-03-05T21:18:58.203Z,7.11
2024-03-05T21:21:25.288Z,7.13
2024-03-05T21:23:51.994Z,7.15
2024-03-05T21:26:34.582Z,7.15
2024-03-05T21:29:06.216Z,7.17
2024-03-05T21:31:38.141Z,7.19
2024-03-05T21:34:07.669Z,7.21
2024-03-05T21:36:34.494Z,7.24
2024-03-05T21:39:01.794Z,7.26
2024-03-05T21:41:28.616Z,7.27
2024-03-05T21:43:55.374Z,7.28
2024-03-05T21:46:22.806Z,7.29
2024-03-05T21:48:49.576Z,7.30
2024-03-05T21:51:16.948Z,7.32
2024-03-05T21:53:43.894Z,7.31
2024-03-05T21:56:11.432Z,7.27
2024-03-05T21:58:43.322Z,7.26
2024-03-05T22:01:10.708Z,7.25
2024-03-05T22:03:37.539Z,7.24
2024-03-05T22:06:14.905Z,7.26
2024-03-05T22:08:45.818Z,7.24
2024-03-05T22:11:13.981Z,7.23
2024-03-05T22:13:40.849Z,7.22
2024-03-05T22:16:07.523Z,7.21
2024-03-05T22:18:34.275Z,7.20
2024-03-05T22:21:00.883Z,7.21
2024-03-05T22:23:27.612Z,7.22
2024-03-05T22:25:54.612Z,7.24
2024-03-05T22:28:22.161Z,7.26
2024-03-05T22:30:49.776Z,7.28
2024-03-05T22:33:16.490Z,7.28
2024-03-05T22:35:43.253Z,7.28
2024-03-05T22:38:11.143Z,7.30
2024-03-05T22:40:38.120Z,7.28
2024-03-05T22:43:06.491Z,7.26
2024-03-05T22:45:35.959Z,7.25
2024-03-05T22:48:02.664Z,7.25
2024-03-05T22:50:29.465Z,7.26
2024-03-05T22:52:56.134Z,7.27
2024-03-05T22:55:22.985Z,7.28
2024-03-05T22:57:50.064Z,7.29
2024-03-05T23:00:24.293Z,7.30
2024-03-05T23:02:55.079Z,7.31
2024-03-05T23:05:22.173Z,7.31
2024-03-05T23:07:49.426Z,7.33
2024-03-05T23:10:17.614Z,7.35
2024-03-05T23:12:45.298Z,7.36
2024-03-05T23:15:16.374Z,7.37
2024-03-05T23:17:44.435Z,7.34
2024-03-05T23:20:12.558Z,7.31
2024-03-05T23:22:40.468Z,7.29
2024-03-05T23:25:08.826Z,7.28
2024-03-05T23:27:36.672Z,7.27
2024-03-05T23:30:27.068Z,7.25
2024-03-05T23:32:55.849Z,7.21
2024-03-05T23:35:26.449Z,7.19
2024-03-05T23:37:54.700Z,7.18
2024-03-05T23:40:21.343Z,7.18
2024-03-05T23:42:48.075Z,7.17
2024-03-05T23:45:14.818Z,7.14
2024-03-05T23:47:42.136Z,7.10
2024-03-05T23:50:10.470Z,7.06
2024-03-05T23:52:37.959Z,7.02
2024-03-05T23:55:07.116Z,6.99
2024-03-05T23:57:34.080Z,6.99
